Time;durP1;ratioP1;P1;durP2;ratioP2;P2;SDS_P1;SDS_P2;PMS_P1;PMS_P2;Temp;Humidity;BMP_temperature;BMP_pressure;BME280_temperature;BME280_humidity;BME280_pressure;Samples;Min_cycle;Max_cycle;Signal;HPM_P1;HPM_P2
2022/04/15 00:00:05;;;;;;;9.35;6.55;;;14.60;99.90;;;;;;5054953;28;20151;-65
2022/04/15 00:02:31;;;;;;;11.57;6.68;;;14.50;99.90;;;;;;5054610;28;20566;-65
2022/04/15 00:04:57;;;;;;;11.07;6.80;;;14.50;99.90;;;;;;5054689;28;20048;-65
2022/04/15 00:07:23;;;;;;;11.25;6.18;;;14.40;99.90;;;;;;5054707;28;20091;-65
2022/04/15 00:09:48;;;;;;;11.15;6.03;;;14.40;99.90;;;;;;5036840;28;20032;-65
2022/04/15 00:12:17;;;;;;;11.43;6.10;;;14.40;99.90;;;;;;5054889;28;20029;-65
2022/04/15 00:14:44;;;;;;;11.95;6.75;;;14.40;99.90;;;;;;5054626;28;20259;-65
2022/04/15 00:17:10;;;;;;;10.23;6.45;;;14.30;99.90;;;;;;5054501;28;20391;-65
2022/04/15 00:19:36;;;;;;;10.20;6.35;;;14.30;99.90;;;;;;5054641;28;20025;-64
2022/04/15 00:22:01;;;;;;;;;;;14.30;99.90;;;;;;5055012;28;20037;-65
2022/04/15 00:24:27;;;;;;;14.85;6.88;;;14.20;99.90;;;;;;5036520;28;20355;-64
2022/04/15 00:26:53;;;;;;;9.03;6.30;;;14.20;99.90;;;;;;5054773;28;20025;-64
2022/04/15 00:29:19;;;;;;;;;;;14.20;99.90;;;;;;5054434;28;20044;-64
2022/04/15 00:31:44;;;;;;;14.60;6.63;;;14.20;99.90;;;;;;5054113;28;20003;-65
2022/04/15 00:34:10;;;;;;;11.43;6.70;;;14.20;99.90;;;;;;5054464;28;20483;-64
2022/04/15 00:36:35;;;;;;;10.87;6.70;;;14.10;99.90;;;;;;5054111;28;20021;-64
2022/04/15 00:39:02;;;;;;;11.15;7.22;;;14.10;99.90;;;;;;5054054;28;20032;-63
2022/04/15 00:41:28;;;;;;;8.65;6.45;;;14.10;99.90;;;;;;5054137;28;20037;-64
2022/04/15 00:43:55;;;;;;;8.43;6.33;;;14.10;99.90;;;;;;5054046;28;20079;-64
2022/04/15 00:46:20;;;;;;;8.73;6.55;;;14.10;99.90;;;;;;5053880;28;20468;-64
2022/04/15 00:48:46;;;;;;;9.70;7.43;;;14.10;99.90;;;;;;5053698;28;20036;-64
2022/04/15 00:51:11;;;;;;;13.30;7.83;;;14.10;99.90;;;;;;5053914;28;20451;-63
2022/04/15 00:53:40;;;;;;;14.25;7.22;;;14.00;99.90;;;;;;5053821;28;20040;-64
2022/04/15 00:56:08;;;;;;;11.85;6.85;;;14.00;99.90;;;;;;5035918;28;20028;-65
2022/04/15 00:58:35;;;;;;;12.35;7.22;;;14.00;99.90;;;;;;5054379;28;20483;-65
2022/04/15 01:01:01;;;;;;;11.55;7.63;;;13.90;99.90;;;;;;5054013;28;20387;-64
2022/04/15 01:03:29;;;;;;;13.15;7.75;;;13.90;99.90;;;;;;5035618;28;20398;-65
2022/04/15 01:05:59;;;;;;;10.00;6.93;;;13.80;99.90;;;;;;5053779;28;20079;-65
2022/04/15 01:08:28;;;;;;;12.95;7.28;;;13.80;99.90;;;;;;5053678;28;20025;-64
2022/04/15 01:10:58;;;;;;;10.20;7.38;;;13.80;99.90;;;;;;5053665;28;20025;-65
2022/04/15 01:13:25;;;;;;;14.15;7.80;;;13.70;99.90;;;;;;5035910;28;20467;-65
2022/04/15 01:15:53;;;;;;;12.45;7.72;;;13.70;99.90;;;;;;5036217;28;20128;-65
2022/04/15 01:18:18;;;;;;;14.65;7.28;;;13.70;99.90;;;;;;5054940;28;20029;-65
2022/04/15 01:20:51;;;;;;;12.30;7.90;;;13.60;99.90;;;;;;5055389;28;20494;-65
2022/04/15 01:23:18;;;;;;;11.55;7.15;;;13.60;99.90;;;;;;5058395;28;20276;-65
2022/04/15 01:25:44;;;;;;;10.25;7.63;;;13.60;99.90;;;;;;5058132;28;20388;-65
2022/04/15 01:28:09;;;;;;;8.68;6.85;;;13.60;99.90;;;;;;5055832;28;20120;-65
2022/04/15 01:30:36;;;;;;;11.40;7.18;;;13.50;99.90;;;;;;5054651;28;20048;-66
2022/04/15 01:33:03;;;;;;;10.52;7.53;;;13.50;99.90;;;;;;5056341;28;20025;-65
2022/04/15 01:35:29;;;;;;;11.75;7.05;;;13.50;99.90;;;;;;5063043;28;20094;-64
2022/04/15 01:37:57;;;;;;;13.93;6.85;;;13.50;99.90;;;;;;5054655;28;20029;-66
2022/04/15 01:40:23;;;;;;;12.07;6.85;;;13.50;99.90;;;;;;5065987;28;20471;-66
2022/04/15 01:42:49;;;;;;;12.10;6.65;;;13.50;99.90;;;;;;5060703;28;20029;-65
2022/04/15 01:45:15;;;;;;;13.82;7.35;;;13.50;99.90;;;;;;5040996;28;20078;-64
2022/04/15 01:47:41;;;;;;;10.02;7.18;;;13.50;99.90;;;;;;5067343;28;20025;-65
2022/04/15 01:50:08;;;;;;;12.80;6.78;;;13.50;99.90;;;;;;5057408;28;20100;-65
2022/04/15 01:52:33;;;;;;;11.40;6.95;;;13.50;99.90;;;;;;5054511;28;20037;-64
2022/04/15 01:54:59;;;;;;;13.82;7.13;;;13.50;99.90;;;;;;5053385;28;20396;-64
2022/04/15 01:57:25;;;;;;;11.52;7.15;;;13.40;99.90;;;;;;5053207;28;20028;-65
2022/04/15 01:59:50;;;;;;;12.35;7.00;;;13.40;99.90;;;;;;5034777;28;20029;-65
2022/04/15 02:02:16;;;;;;;16.27;6.73;;;13.40;99.90;;;;;;5052704;28;20037;-65
2022/04/15 02:04:42;;;;;;;10.13;6.70;;;13.40;99.90;;;;;;5035537;28;20021;-66
2022/04/15 02:07:07;;;;;;;12.63;6.43;;;13.30;99.90;;;;;;5038843;28;20025;-65
2022/04/15 02:09:33;;;;;;;9.52;6.63;;;13.20;99.90;;;;;;5056713;28;20064;-65
2022/04/15 02:11:59;;;;;;;11.60;6.68;;;13.20;99.90;;;;;;5056891;28;20392;-64
2022/04/15 02:14:25;;;;;;;13.55;7.85;;;13.20;99.90;;;;;;5056512;28;20021;-64
2022/04/15 02:16:54;;;;;;;12.30;7.13;;;13.10;99.90;;;;;;5056575;28;20025;-64
2022/04/15 02:19:22;;;;;;;12.48;7.13;;;13.00;99.90;;;;;;5056739;28;20021;-65
2022/04/15 02:21:48;;;;;;;10.68;6.70;;;13.00;99.90;;;;;;5056493;28;20114;-65
2022/04/15 02:24:14;;;;;;;10.43;7.80;;;12.90;99.90;;;;;;5038814;28;20387;-65
2022/04/15 02:26:40;;;;;;;10.20;6.20;;;12.90;99.90;;;;;;5056470;28;20107;-63
2022/04/15 02:29:06;;;;;;;;;;;12.80;99.90;;;;;;5057178;28;20021;-64
2022/04/15 02:31:32;;;;;;;10.18;5.72;;;12.80;99.90;;;;;;5057743;28;20302;-64
2022/04/15 02:33:57;;;;;;;10.10;6.27;;;12.80;99.90;;;;;;5056538;28;20419;-65
2022/04/15 02:36:23;;;;;;;10.20;6.10;;;12.80;99.90;;;;;;5056310;28;20070;-65
2022/04/15 02:38:48;;;;;;;8.43;6.07;;;12.80;99.90;;;;;;5056124;28;20372;-64
2022/04/15 02:41:14;;;;;;;11.57;5.70;;;12.80;99.90;;;;;;5056108;28;20031;-65
2022/04/15 02:43:40;;;;;;;10.55;6.65;;;12.80;99.90;;;;;;5056044;28;20091;-65
2022/04/15 02:46:08;;;;;;;10.27;6.30;;;12.70;99.90;;;;;;5056342;28;20038;-65
2022/04/15 02:48:34;;;;;;;9.93;6.70;;;12.70;99.90;;;;;;5056137;28;20460;-64
2022/04/15 02:51:01;;;;;;;8.27;5.65;;;12.60;99.90;;;;;;5056113;28;20128;-64
2022/04/15 02:53:26;;;;;;;;;;;12.60;99.90;;;;;;5038738;28;20069;-65
2022/04/15 02:55:53;;;;;;;9.10;6.40;;;12.60;99.90;;;;;;5056495;28;19904;-65
2022/04/15 02:58:20;;;;;;;9.10;6.10;;;12.60;99.90;;;;;;5055814;28;20040;-65
2022/04/15 03:00:46;;;;;;;9.48;6.75;;;12.60;99.90;;;;;;5056040;28;20064;-65
2022/04/15 03:03:11;;;;;;;10.40;6.07;;;12.60;99.90;;;;;;5055497;28;20025;-65
2022/04/15 03:05:38;;;;;;;12.07;5.80;;;12.50;99.90;;;;;;5055895;28;20025;-65
2022/04/15 03:08:05;;;;;;;10.60;6.53;;;12.50;99.90;;;;;;5055738;28;20255;-64
2022/04/15 03:10:30;;;;;;;11.13;7.03;;;12.50;99.90;;;;;;5055987;28;20021;-66
2022/04/15 03:12:56;;;;;;;9.50;6.10;;;12.50;99.90;;;;;;5055465;28;20033;-64
2022/04/15 03:15:21;;;;;;;10.03;6.07;;;12.40;99.90;;;;;;5055824;28;20025;-64
2022/04/15 03:17:47;;;;;;;10.27;6.13;;;12.40;99.90;;;;;;5054128;28;20483;-64
2022/04/15 03:20:13;;;;;;;10.53;6.60;;;12.40;99.90;;;;;;5055637;28;20029;-64
2022/04/15 03:22:40;;;;;;;9.52;6.25;;;12.40;99.90;;;;;;5055484;28;20314;-64
2022/04/15 03:25:09;;;;;;;12.52;6.40;;;12.40;99.90;;;;;;5055634;28;20026;-64
2022/04/15 03:27:35;;;;;;;11.65;6.03;;;12.30;99.90;;;;;;5055736;28;20088;-64
2022/04/15 03:30:01;;;;;;;10.93;6.20;;;12.30;99.90;;;;;;5055989;28;20114;-64
2022/04/15 03:32:27;;;;;;;9.70;6.22;;;12.30;99.90;;;;;;5055362;28;20025;-63
2022/04/15 03:34:53;;;;;;;10.88;6.35;;;12.30;99.90;;;;;;5055192;28;20165;-65
2022/04/15 03:37:19;;;;;;;11.00;5.85;;;12.30;99.90;;;;;;5055051;28;20367;-64
2022/04/15 03:39:44;;;;;;;12.83;6.33;;;12.30;99.90;;;;;;5055466;28;20025;-65
2022/04/15 03:42:10;;;;;;;8.45;6.30;;;12.30;99.90;;;;;;5055260;28;20048;-65
2022/04/15 03:44:36;;;;;;;8.37;6.03;;;12.30;99.90;;;;;;5055433;28;20446;-65
2022/04/15 03:47:05;;;;;;;7.95;5.72;;;12.30;99.90;;;;;;5055238;28;20021;-65
2022/04/15 03:49:31;;;;;;;9.45;5.75;;;12.20;99.90;;;;;;5037088;28;20025;-65
2022/04/15 03:51:57;;;;;;;10.75;5.88;;;12.20;99.90;;;;;;5054894;28;20033;-65
2022/04/15 03:54:23;;;;;;;10.75;5.78;;;12.20;99.90;;;;;;5055081;28;20127;-65
2022/04/15 03:56:48;;;;;;;8.60;5.90;;;12.20;99.90;;;;;;5036814;28;20091;-65
2022/04/15 03:59:14;;;;;;;9.90;5.68;;;12.20;99.90;;;;;;5054706;28;20100;-65
2022/04/15 04:01:40;;;;;;;9.03;5.87;;;12.20;99.90;;;;;;5037442;28;20065;-66
2022/04/15 04:04:05;;;;;;;12.32;6.10;;;12.10;99.90;;;;;;5038443;28;20041;-65
2022/04/15 04:06:31;;;;;;;8.90;6.17;;;12.10;99.90;;;;;;5057563;28;20052;-65
2022/04/15 04:08:56;;;;;;;8.17;6.03;;;12.10;99.90;;;;;;5057254;28;20622;-64
2022/04/15 04:11:22;;;;;;;7.77;5.77;;;12.00;99.90;;;;;;5055416;28;20017;-64
2022/04/15 04:13:48;;;;;;;9.75;5.88;;;12.00;99.90;;;;;;5054645;28;20048;-65
2022/04/15 04:16:14;;;;;;;11.88;6.60;;;12.00;99.90;;;;;;5054347;28;20040;-65
2022/04/15 04:18:41;;;;;;;7.93;5.27;;;12.00;99.90;;;;;;5054736;28;20028;-65
2022/04/15 04:21:07;;;;;;;8.43;5.80;;;11.90;99.90;;;;;;5054328;28;20785;-65
2022/04/15 04:23:33;;;;;;;9.52;5.07;;;12.00;99.90;;;;;;5036242;28;20041;-65
2022/04/15 04:25:59;;;;;;;11.85;5.93;;;11.90;99.90;;;;;;5054231;28;20025;-65
2022/04/15 04:28:25;;;;;;;9.10;6.00;;;12.00;99.90;;;;;;5053868;28;20021;-65
2022/04/15 04:30:52;;;;;;;12.80;6.38;;;12.00;99.90;;;;;;5054451;28;20040;-65
2022/04/15 04:33:18;;;;;;;10.05;6.10;;;12.00;99.90;;;;;;5054085;28;20100;-65
2022/04/15 04:35:44;;;;;;;9.27;5.95;;;11.90;99.90;;;;;;5053845;28;20427;-65
2022/04/15 04:38:09;;;;;;;12.07;6.27;;;12.00;99.90;;;;;;5053898;28;20116;-65
2022/04/15 04:40:35;;;;;;;10.77;7.27;;;11.90;99.90;;;;;;5053781;28;20052;-65
2022/04/15 04:43:03;;;;;;;13.25;6.22;;;11.90;99.90;;;;;;5053611;28;20372;-65
2022/04/15 04:45:29;;;;;;;18.38;6.85;;;11.90;99.90;;;;;;5053863;28;20051;-65
2022/04/15 04:47:56;;;;;;;11.07;5.40;;;11.90;99.90;;;;;;5054518;28;20077;-64
2022/04/15 04:50:21;;;;;;;9.70;5.97;;;11.90;99.90;;;;;;5053642;28;20020;-65
2022/04/15 04:52:48;;;;;;;8.33;5.83;;;12.00;99.90;;;;;;5053632;28;20036;-65
2022/04/15 04:55:14;;;;;;;8.60;6.53;;;11.90;99.90;;;;;;5053811;28;20263;-65
2022/04/15 04:57:42;;;;;;;10.25;6.13;;;12.00;99.90;;;;;;5053715;28;20037;-65
2022/04/15 05:00:09;;;;;;;9.35;6.15;;;12.00;99.90;;;;;;5053525;28;20082;-65
2022/04/15 05:02:35;;;;;;;8.65;5.95;;;12.10;99.90;;;;;;5035862;28;20075;-65
2022/04/15 05:05:01;;;;;;;12.30;7.80;;;12.10;99.90;;;;;;5053744;28;20447;-65
2022/04/15 05:07:26;;;;;;;8.38;6.75;;;12.10;99.90;;;;;;5055301;28;20029;-64
2022/04/15 05:09:52;;;;;;;10.37;6.73;;;12.10;99.90;;;;;;5055667;28;20497;-65
2022/04/15 05:12:18;;;;;;;11.10;7.35;;;12.20;99.90;;;;;;5054690;28;20027;-65
2022/04/15 05:14:43;;;;;;;10.50;7.20;;;12.20;99.90;;;;;;5053964;28;20082;-64
2022/04/15 05:17:09;;;;;;;11.32;7.22;;;12.20;99.90;;;;;;5054177;28;20025;-64
2022/04/15 05:19:35;;;;;;;10.50;7.68;;;12.30;99.90;;;;;;5053697;28;20025;-65
2022/04/15 05:22:00;;;;;;;14.03;8.73;;;12.40;99.90;;;;;;5053062;28;20545;-65
2022/04/15 05:24:26;;;;;;;13.47;9.67;;;12.40;99.90;;;;;;5035408;28;20499;-65
2022/04/15 05:26:51;;;;;;;13.60;8.73;;;12.40;99.90;;;;;;5053219;28;20738;-64
2022/04/15 05:29:17;;;;;;;15.53;10.67;;;12.50;99.90;;;;;;5053625;28;20070;-65
2022/04/15 05:31:43;;;;;;;16.60;11.48;;;12.60;99.90;;;;;;5053327;28;20088;-64
2022/04/15 05:34:08;;;;;;;16.60;12.07;;;12.60;99.90;;;;;;5035490;28;20029;-64
2022/04/15 05:36:34;;;;;;;21.97;12.30;;;12.60;99.90;;;;;;5053394;28;20373;-65
2022/04/15 05:39:00;;;;;;;18.73;10.77;;;12.70;99.90;;;;;;5052999;28;20282;-64
2022/04/15 05:41:27;;;;;;;16.00;11.20;;;12.80;99.90;;;;;;5052760;28;20575;-66
2022/04/15 05:43:52;;;;;;;14.57;10.70;;;12.90;99.90;;;;;;5034974;28;20403;-65
2022/04/15 05:46:19;;;;;;;16.00;11.17;;;12.90;99.90;;;;;;5053163;28;20028;-65
2022/04/15 05:48:45;;;;;;;14.98;9.32;;;13.00;99.90;;;;;;5034995;28;20256;-65
2022/04/15 05:51:10;;;;;;;15.35;11.10;;;13.10;99.90;;;;;;5053107;28;20058;-65
2022/04/15 05:53:36;;;;;;;15.50;12.13;;;13.20;99.90;;;;;;5052704;28;20041;-66
2022/04/15 05:56:02;;;;;;;18.43;13.47;;;13.20;99.90;;;;;;5052774;28;20106;-65
2022/04/15 05:58:28;;;;;;;21.00;13.77;;;13.30;99.90;;;;;;5053321;28;20033;-65
2022/04/15 06:00:54;;;;;;;22.25;14.05;;;13.40;99.90;;;;;;5052631;28;20271;-65
2022/04/15 06:03:20;;;;;;;20.73;15.45;;;13.50;99.90;;;;;;5052764;28;20082;-64
2022/04/15 06:05:47;;;;;;;22.98;15.20;;;13.50;99.90;;;;;;5052791;28;20029;-64
2022/04/15 06:08:13;;;;;;;24.13;15.50;;;13.60;99.90;;;;;;5052929;28;20028;-65
2022/04/15 06:10:38;;;;;;;25.83;15.82;;;13.60;99.90;;;;;;5052911;28;20017;-65
2022/04/15 06:13:08;;;;;;;18.58;14.70;;;13.70;99.90;;;;;;5052493;28;20372;-65
2022/04/15 06:15:36;;;;;;;22.08;15.40;;;13.80;99.90;;;;;;5052906;28;20058;-65
2022/04/15 06:18:02;;;;;;;21.45;16.05;;;13.90;99.90;;;;;;5052788;28;20104;-65
2022/04/15 06:20:28;;;;;;;21.20;15.27;;;14.00;99.90;;;;;;5052896;28;20525;-65
2022/04/15 06:22:54;;;;;;;19.25;14.85;;;14.10;99.90;;;;;;5053787;28;20399;-65
2022/04/15 06:25:20;;;;;;;20.45;14.90;;;14.20;99.90;;;;;;5054272;28;20025;-64
2022/04/15 06:27:45;;;;;;;20.73;15.20;;;14.30;99.90;;;;;;5054796;28;20044;-65
2022/04/15 06:30:11;;;;;;;19.20;14.80;;;14.50;99.90;;;;;;5036525;28;20044;-65
2022/04/15 06:32:37;;;;;;;21.35;14.77;;;14.60;99.90;;;;;;5053808;28;20045;-66
2022/04/15 06:35:07;;;;;;;21.50;16.15;;;14.80;99.90;;;;;;5054025;28;20029;-65
2022/04/15 06:37:33;;;;;;;19.33;14.23;;;14.90;99.90;;;;;;5052963;28;20499;-66
2022/04/15 06:39:59;;;;;;;22.83;14.95;;;15.00;99.90;;;;;;5053601;28;20041;-65
2022/04/15 06:42:27;;;;;;;16.92;13.57;;;15.10;99.90;;;;;;5053218;28;20029;-65
2022/04/15 06:44:53;;;;;;;22.48;13.98;;;15.20;99.90;;;;;;5053105;28;20028;-65
2022/04/15 06:47:19;;;;;;;17.52;13.63;;;15.30;99.90;;;;;;5053034;28;20021;-66
2022/04/15 06:49:45;;;;;;;24.63;15.00;;;15.50;99.90;;;;;;5052627;28;20056;-64
2022/04/15 06:52:12;;;;;;;21.20;14.25;;;15.50;99.90;;;;;;5055372;28;20410;-65
2022/04/15 06:54:38;;;;;;;20.60;15.38;;;15.60;99.90;;;;;;5056449;28;20053;-64
2022/04/15 06:57:04;;;;;;;25.40;15.27;;;15.40;99.90;;;;;;5056715;28;20035;-64
2022/04/15 06:59:30;;;;;;;22.00;15.07;;;15.30;99.90;;;;;;5038050;28;20035;-65
2022/04/15 07:01:56;;;;;;;22.60;15.65;;;15.30;99.90;;;;;;5055961;28;20025;-65
2022/04/15 07:04:23;;;;;;;23.25;16.20;;;15.30;99.90;;;;;;5056329;28;20043;-63
2022/04/15 07:06:48;;;;;;;;;;;15.40;99.90;;;;;;5056153;28;20028;-64
2022/04/15 07:09:14;;;;;;;25.65;16.35;;;15.30;99.90;;;;;;5057032;28;19905;-65
2022/04/15 07:11:40;;;;;;;23.40;16.73;;;15.20;99.90;;;;;;5055931;28;20021;-65
2022/04/15 07:14:05;;;;;;;21.70;16.92;;;15.20;99.90;;;;;;5055609;28;20737;-64
2022/04/15 07:16:31;;;;;;;24.40;15.80;;;15.30;99.90;;;;;;5037874;28;20037;-64
2022/04/15 07:18:57;;;;;;;28.35;18.77;;;15.30;99.90;;;;;;5055655;28;20263;-65
2022/04/15 07:21:24;;;;;;;26.40;18.40;;;15.30;99.90;;;;;;5055830;28;20032;-64
2022/04/15 07:23:50;;;;;;;23.25;17.45;;;15.40;99.90;;;;;;5057766;28;20384;-65
2022/04/15 07:26:15;;;;;;;23.38;17.38;;;15.50;99.90;;;;;;5057283;28;20031;-65
2022/04/15 07:28:41;;;;;;;26.95;17.52;;;15.70;99.90;;;;;;5057522;28;20035;-65
2022/04/15 07:31:07;;;;;;;23.98;17.75;;;15.70;99.90;;;;;;5056037;28;20021;-64
2022/04/15 07:33:33;;;;;;;24.33;17.95;;;15.70;99.90;;;;;;5037966;28;20021;-65
2022/04/15 07:35:58;;;;;;;26.13;17.92;;;15.70;99.90;;;;;;5056103;28;20035;-66
2022/04/15 07:38:24;;;;;;;21.00;16.77;;;15.70;99.90;;;;;;5055768;28;20582;-65
2022/04/15 07:40:49;;;;;;;23.60;17.58;;;15.80;99.90;;;;;;5056478;28;20028;-65
2022/04/15 07:43:15;;;;;;;22.27;17.33;;;15.90;99.90;;;;;;5055984;28;20399;-64
2022/04/15 07:45:41;;;;;;;23.50;17.10;;;15.90;99.90;;;;;;5055744;28;20252;-64
2022/04/15 07:48:07;;;;;;;24.35;16.55;;;15.90;99.90;;;;;;5056046;28;20025;-64
2022/04/15 07:50:32;;;;;;;22.30;17.13;;;16.00;99.90;;;;;;5056571;28;20526;-64
2022/04/15 07:52:59;;;;;;;23.40;16.42;;;16.10;99.90;;;;;;5037946;28;20037;-65
2022/04/15 07:55:26;;;;;;;23.08;16.80;;;16.20;99.90;;;;;;5055373;28;20029;-66
2022/04/15 07:57:52;;;;;;;21.40;16.25;;;16.30;99.90;;;;;;5055109;28;20032;-65
2022/04/15 08:00:19;;;;;;;24.58;16.85;;;16.50;99.90;;;;;;5057193;28;20025;-65
2022/04/15 08:02:44;;;;;;;;;;;16.60;99.90;;;;;;5056565;28;20061;-65
2022/04/15 08:05:10;;;;;;;23.98;16.58;;;16.80;99.90;;;;;;5056755;28;19908;-65
2022/04/15 08:07:35;;;;;;;22.25;15.90;;;16.80;99.90;;;;;;5056137;28;20032;-65
2022/04/15 08:10:03;;;;;;;19.48;16.25;;;16.80;99.90;;;;;;5055456;28;20029;-63
2022/04/15 08:12:28;;;;;;;20.95;15.68;;;17.00;99.90;;;;;;5055623;28;20028;-63
2022/04/15 08:14:54;;;;;;;21.23;15.65;;;17.20;99.90;;;;;;5055307;28;20021;-64
2022/04/15 08:17:19;;;;;;;21.52;15.60;;;17.30;99.90;;;;;;5055431;28;20033;-66
2022/04/15 08:19:46;;;;;;;20.70;15.25;;;17.50;99.90;;;;;;5056552;28;20459;-66
2022/04/15 08:22:11;;;;;;;18.90;14.60;;;17.40;99.90;;;;;;5055569;28;20025;-65
2022/04/15 08:24:42;;;;;;;19.83;14.27;;;17.40;99.90;;;;;;5056849;28;20416;-64
2022/04/15 08:27:08;;;;;;;18.05;12.50;;;17.70;99.90;;;;;;5057230;28;20024;-64
2022/04/15 08:29:38;;;;;;;;;;;18.00;99.90;;;;;;5056805;28;20099;-66
2022/04/15 08:32:08;;;;;;;18.52;14.05;;;18.60;99.90;;;;;;5055561;28;19912;-66
2022/04/15 08:34:37;;;;;;;18.95;13.75;;;19.40;99.90;;;;;;5054772;28;20570;-65
2022/04/15 08:37:02;;;;;;;17.23;13.63;;;20.30;99.70;;;;;;5054768;28;20075;-66
2022/04/15 08:39:28;;;;;;;16.45;12.98;;;21.30;97.20;;;;;;5054384;28;20063;-65
2022/04/15 08:41:54;;;;;;;;;;;22.20;95.30;;;;;;5054984;28;20029;-64
2022/04/15 08:44:22;;;;;;;18.00;15.02;;;23.00;93.60;;;;;;5054339;28;19915;-65
2022/04/15 08:46:49;;;;;;;16.23;13.63;;;23.50;91.80;;;;;;5036241;28;20360;-66
2022/04/15 08:49:19;;;;;;;22.98;15.65;;;23.70;90.90;;;;;;5055215;28;20029;-66
2022/04/15 08:51:47;;;;;;;17.15;13.60;;;23.70;89.90;;;;;;5054799;28;20533;-66
2022/04/15 08:54:13;;;;;;;16.83;13.68;;;23.90;90.10;;;;;;5055077;28;20107;-66
2022/04/15 08:56:38;;;;;;;;;;;24.40;88.10;;;;;;5054994;28;20021;-65
2022/04/15 08:59:04;;;;;;;15.82;12.45;;;25.10;84.80;;;;;;5053950;28;20318;-65
2022/04/15 09:01:30;;;;;;;20.95;13.77;;;25.70;82.90;;;;;;5053655;28;20203;-66
2022/04/15 09:03:57;;;;;;;16.25;12.93;;;26.00;80.50;;;;;;5054208;28;20061;-66
2022/04/15 09:06:28;;;;;;;15.43;13.80;;;26.00;79.50;;;;;;5054112;28;20029;-67
2022/04/15 09:09:02;;;;;;;15.63;12.98;;;26.10;77.90;;;;;;5053843;28;20017;-66
2022/04/15 09:11:36;;;;;;;14.75;12.13;;;26.50;76.70;;;;;;5053518;28;20025;-65
2022/04/15 09:14:06;;;;;;;14.73;12.48;;;27.10;75.20;;;;;;5053687;28;20087;-66
2022/04/15 09:16:40;;;;;;;15.40;12.07;;;26.60;75.00;;;;;;5053776;28;20052;-67
2022/04/15 09:19:07;;;;;;;13.73;12.25;;;26.40;74.70;;;;;;5053880;28;20106;-65
2022/04/15 09:21:33;;;;;;;16.25;13.40;;;26.60;74.20;;;;;;5054838;28;20047;-66
2022/04/15 09:23:59;;;;;;;14.45;12.23;;;26.70;72.70;;;;;;5076528;23;20041;-65
2022/04/15 09:26:26;;;;;;;17.35;13.07;;;26.60;73.00;;;;;;5053829;28;20075;-64
2022/04/15 09:28:53;;;;;;;14.70;12.88;;;26.60;72.70;;;;;;5053630;28;20100;-64
2022/04/15 09:31:21;;;;;;;17.00;13.23;;;26.30;73.10;;;;;;5053972;28;20074;-64
2022/04/15 09:34:00;;;;;;;16.02;11.77;;;26.30;72.30;;;;;;5054303;28;20029;-65
2022/04/15 09:36:32;;;;;;;15.50;12.32;;;26.20;71.90;;;;;;5036681;28;20458;-64
2022/04/15 09:39:10;;;;;;;14.85;12.63;;;25.90;72.20;;;;;;5054342;28;20390;-65
2022/04/15 09:41:37;;;;;;;18.58;12.57;;;26.00;71.70;;;;;;5036376;28;20437;-65
2022/04/15 09:44:03;;;;;;;15.75;12.60;;;26.10;71.90;;;;;;5035492;28;20082;-65
2022/04/15 09:46:31;;;;;;;16.20;13.95;;;26.30;71.10;;;;;;5053522;28;20104;-65
2022/04/15 09:49:03;;;;;;;16.02;13.80;;;26.40;69.90;;;;;;5035803;28;20037;-65
2022/04/15 09:51:33;;;;;;;15.85;13.60;;;26.00;69.70;;;;;;5053765;28;20049;-65
2022/04/15 09:54:01;;;;;;;17.67;13.05;;;25.20;70.70;;;;;;5053354;28;20434;-64
2022/04/15 09:56:30;;;;;;;16.45;11.95;;;25.40;71.90;;;;;;5035254;28;20032;-64
2022/04/15 09:59:01;;;;;;;15.30;11.57;;;26.30;69.80;;;;;;5035239;28;20055;-65
2022/04/15 10:01:30;;;;;;;14.32;12.70;;;26.70;69.00;;;;;;5035166;28;20036;-65
2022/04/15 10:03:56;;;;;;;11.68;10.43;;;27.50;65.70;;;;;;5052435;28;20025;-65
2022/04/15 10:06:22;;;;;;;14.80;10.65;;;27.30;65.50;;;;;;5052739;28;20025;-66
2022/04/15 10:08:48;;;;;;;12.93;11.38;;;27.10;66.80;;;;;;5052776;28;20158;-65
2022/04/15 10:11:15;;;;;;;15.90;12.98;;;27.30;64.90;;;;;;5052805;28;20021;-65
2022/04/15 10:13:44;;;;;;;12.48;10.88;;;27.00;66.00;;;;;;5034864;28;20021;-65
2022/04/15 10:16:10;;;;;;;14.25;11.60;;;27.00;65.80;;;;;;5052975;28;20033;-66
2022/04/15 10:18:36;;;;;;;18.58;13.73;;;27.10;65.20;;;;;;5035014;28;20025;-65
2022/04/15 10:21:03;;;;;;;14.73;12.95;;;27.00;64.80;;;;;;5053013;28;20115;-65
2022/04/15 10:23:30;;;;;;;14.00;11.25;;;27.70;63.90;;;;;;5052542;28;20117;-65
2022/04/15 10:25:59;;;;;;;12.82;10.88;;;28.40;62.00;;;;;;5053915;28;20033;-65
2022/04/15 10:28:45;;;;;;;10.40;9.35;;;28.50;61.90;;;;;;5038429;28;20028;-66
2022/04/15 10:31:14;;;;;;;11.07;9.35;;;28.80;60.60;;;;;;5057221;28;20024;-67
2022/04/15 10:33:40;;;;;;;12.30;10.40;;;29.30;59.40;;;;;;5057806;28;20021;-65
2022/04/15 10:36:14;;;;;;;13.93;12.00;;;28.10;60.20;;;;;;5059381;28;20025;-65
2022/04/15 10:39:02;;;;;;;12.77;10.77;;;27.90;60.90;;;;;;5057221;28;20025;-64
2022/04/15 10:41:28;;;;;;;14.23;11.38;;;27.60;61.10;;;;;;5056725;28;20029;-64
2022/04/15 10:44:00;;;;;;;13.68;10.15;;;27.20;61.10;;;;;;5057824;28;20025;-64
2022/04/15 10:46:30;;;;;;;13.63;10.50;;;27.20;61.90;;;;;;5058607;28;20045;-65
2022/04/15 10:49:00;;;;;;;16.30;12.98;;;27.30;62.40;;;;;;5056639;28;20071;-65
2022/04/15 10:51:35;;;;;;;15.00;13.23;;;27.00;62.80;;;;;;5039459;28;20106;-65
2022/04/15 10:54:45;;;;;;;13.30;11.88;;;26.20;62.40;;;;;;5058563;28;20029;-65
2022/04/15 10:57:11;;;;;;;14.23;12.68;;;26.60;63.80;;;;;;4977323;28;20038;-65
2022/04/15 11:02:24;;;;;;;;;;;26.60;63.70;;;;;;4977662;28;20113;-66
2022/04/15 11:04:52;;;;;;;15.43;11.18;;;26.80;63.00;;;;;;4975862;28;19913;-65
2022/04/15 11:07:28;;;;;;;12.75;10.63;;;27.00;61.90;;;;;;4975454;28;20038;-65
2022/04/15 11:09:55;;;;;;;10.55;9.45;;;26.60;61.70;;;;;;4958887;28;20027;-65
2022/04/15 11:12:45;;;;;;;13.77;12.00;;;25.90;62.60;;;;;;4975778;28;20572;-65
2022/04/15 11:15:11;;;;;;;13.70;11.82;;;25.40;63.30;;;;;;4976589;28;20125;-64
2022/04/15 11:17:47;;;;;;;13.10;10.20;;;24.30;64.10;;;;;;4974972;28;20031;-64
2022/04/15 11:20:13;;;;;;;14.65;10.18;;;23.70;66.20;;;;;;4958687;28;20030;-65
2022/04/15 11:22:43;;;;;;;;;;;23.40;66.20;;;;;;4975796;28;20035;-65
2022/04/15 11:25:11;;;;;;;13.93;11.23;;;23.10;68.10;;;;;;4959107;28;19961;-66
2022/04/15 11:27:39;;;;;;;16.35;12.30;;;22.90;68.60;;;;;;5010929;28;20037;-66
2022/04/15 11:30:15;;;;;;;17.10;13.93;;;22.80;68.30;;;;;;5040337;28;20025;-65
2022/04/15 11:32:48;;;;;;;12.68;10.90;;;22.60;69.90;;;;;;5058306;28;20108;-67
2022/04/15 11:35:34;;;;;;;14.88;11.60;;;22.70;70.80;;;;;;5055242;28;20049;-66
2022/04/15 11:38:11;;;;;;;18.98;12.80;;;22.80;70.50;;;;;;5036516;28;20029;-66
2022/04/15 11:40:37;;;;;;;15.50;12.00;;;22.40;69.50;;;;;;5038091;28;20483;-66
2022/04/15 11:43:07;;;;;;;18.30;12.40;;;22.00;70.50;;;;;;5055347;28;20035;-65
2022/04/15 11:45:43;;;;;;;13.10;10.45;;;21.70;70.80;;;;;;5036822;28;20025;-65
2022/04/15 11:48:17;;;;;;;14.73;11.27;;;21.80;71.70;;;;;;5055481;28;20099;-65
2022/04/15 11:50:42;;;;;;;15.63;10.57;;;21.90;72.50;;;;;;5055642;28;20021;-65
2022/04/15 11:53:08;;;;;;;15.32;10.95;;;21.90;72.20;;;;;;5037469;28;20029;-65
2022/04/15 11:55:50;;;;;;;17.45;11.65;;;22.00;72.00;;;;;;5054916;28;20060;-65
2022/04/15 11:58:17;;;;;;;14.45;10.93;;;21.90;71.70;;;;;;5054870;28;20055;-65
2022/04/15 12:00:49;;;;;;;14.38;11.15;;;21.70;72.40;;;;;;5054995;28;20087;-65
2022/04/15 12:03:15;;;;;;;14.68;9.40;;;21.50;71.90;;;;;;5055336;28;20021;-65
2022/04/15 12:05:40;;;;;;;12.93;8.30;;;21.40;73.00;;;;;;5054417;28;20036;-66
2022/04/15 12:08:08;;;;;;;16.10;9.93;;;21.50;74.40;;;;;;5036683;28;20021;-66
2022/04/15 12:10:38;;;;;;;13.73;10.65;;;21.60;73.30;;;;;;5054834;28;20422;-66
2022/04/15 12:13:05;;;;;;;10.95;8.55;;;21.40;73.00;;;;;;5054944;28;20497;-65
2022/04/15 12:15:32;;;;;;;15.30;8.85;;;21.30;73.80;;;;;;5055091;28;20025;-65
2022/04/15 12:17:58;;;;;;;16.30;10.45;;;21.40;74.10;;;;;;5055318;28;20029;-65
2022/04/15 12:20:24;;;;;;;13.02;9.95;;;21.20;73.20;;;;;;5054842;28;20406;-65
2022/04/15 12:22:49;;;;;;;12.90;8.98;;;20.90;74.40;;;;;;5056049;28;20391;-66
2022/04/15 12:25:17;;;;;;;12.85;9.15;;;20.90;74.00;;;;;;5054911;28;20095;-67
2022/04/15 12:27:44;;;;;;;12.98;9.07;;;20.90;73.90;;;;;;5036439;28;20036;-67
2022/04/15 12:30:11;;;;;;;11.90;8.23;;;21.00;74.10;;;;;;5054387;28;20029;-67
2022/04/15 12:32:37;;;;;;;;;;;21.10;73.80;;;;;;5055471;28;20031;-67
2022/04/15 12:35:05;;;;;;;11.40;7.38;;;21.00;74.00;;;;;;5037094;28;19904;-66
2022/04/15 12:37:53;;;;;;;10.85;7.45;;;21.10;73.70;;;;;;5054596;28;20083;-66